New Haven, New York
Current Conditions -  °F | °C
As of 1:54 AM on Thursday 23 Oct 2014 (Local Time) from KFZY Reporting Station
Scattered Clouds Scattered Clouds  
Wind Chill: 42°   Ceiling: Unl
Heat Index: 48°   Visibility: 10mi
Dew Point: 36°   Wind: 16mph
Humidity: 63%   Direction: 10°N
Pressure: 30.04"   Gusts: 23mph
Location:  43.48°N, 76.31°W
Report Text: KFZY 230554Z AUTO 01014G20KT 10SM SCT085 09/02 A3004 RMK AO2 SLP172 60000 T00890022 10094 20089 56022
Loading
Personal Weather Stations






























Interactive Weather Map
Tropical Storm Tracking
New forecast layout! Learn more

10-Day Weather Forecast

Advertisements
Track Severe Weather on mobile